Time;durP1;ratioP1;P1;durP2;ratioP2;P2;SDS_P1;SDS_P2;PMS_P1;PMS_P2;Temp;Humidity;BMP_temperature;BMP_pressure;BME280_temperature;BME280_humidity;BME280_pressure;Samples;Min_cycle;Max_cycle;Signal;HPM_P1;HPM_P2
2020/12/07 00:00:24;;;;;;;41.55;26.20;;;6.00;99.90;;;;;;4978320;28;20246;-61
2020/12/07 00:02:50;;;;;;;41.72;24.08;;;6.00;99.90;;;;;;4978588;28;20184;-63
2020/12/07 00:05:16;;;;;;;59.63;35.07;;;6.10;99.90;;;;;;4977487;28;20266;-60
2020/12/07 00:07:41;;;;;;;54.87;32.33;;;6.10;99.90;;;;;;4978588;28;20526;-61
2020/12/07 00:10:07;;;;;;;38.60;24.73;;;6.20;96.50;;;;;;4977070;28;20198;-61
2020/12/07 00:12:33;;;;;;;41.83;27.40;;;6.20;83.20;;;;;;4977779;28;20212;-61
2020/12/07 00:14:59;;;;;;;39.47;24.40;;;6.20;69.80;;;;;;4977587;28;20203;-61
2020/12/07 00:17:26;;;;;;;37.00;24.95;;;6.20;65.30;;;;;;4977525;28;20246;-63
2020/12/07 00:19:52;;;;;;;52.03;27.58;;;6.30;57.70;;;;;;4977749;28;20212;-63
2020/12/07 00:22:29;;;;;;;39.70;25.45;;;6.30;51.60;;;;;;4977805;28;20187;-62
2020/12/07 00:24:55;;;;;;;51.60;29.17;;;6.30;49.40;;;;;;4977179;28;20278;-61
2020/12/07 00:27:25;;;;;;;45.22;25.70;;;6.20;47.00;;;;;;4977452;28;20617;-60
2020/12/07 00:29:51;;;;;;;46.33;26.63;;;6.20;46.40;;;;;;4977519;28;20555;-61
2020/12/07 00:32:18;;;;;;;39.22;26.85;;;6.00;41.00;;;;;;4976297;28;20212;-64
2020/12/07 00:34:43;;;;;;;47.47;25.38;;;6.10;61.80;;;;;;4977180;28;20188;-63
2020/12/07 00:37:09;;;;;;;44.47;27.17;;;6.20;58.60;;;;;;4977375;28;20491;-62
2020/12/07 00:39:36;;;;;;;45.28;27.25;;;6.20;53.40;;;;;;4977215;28;20454;-62
2020/12/07 00:42:02;;;;;;;53.35;28.42;;;6.20;50.50;;;;;;4977198;28;20522;-62
2020/12/07 00:44:28;;;;;;;47.33;26.63;;;6.20;54.60;;;;;;4976967;28;20187;-62
2020/12/07 00:46:54;;;;;;;44.90;25.77;;;6.10;48.50;;;;;;4977013;28;20179;-64
2020/12/07 00:49:20;;;;;;;44.67;26.17;;;6.10;63.00;;;;;;4976051;28;20683;-62
2020/12/07 00:51:47;;;;;;;52.40;28.40;;;6.00;64.50;;;;;;4977066;28;20239;-62
2020/12/07 00:54:12;;;;;;;46.83;25.98;;;6.00;83.70;;;;;;4976588;28;20821;-61
2020/12/07 00:56:38;;;;;;;47.80;24.97;;;5.80;93.10;;;;;;4976893;28;20270;-64
2020/12/07 00:59:03;;;;;;;46.20;25.83;;;5.70;99.90;;;;;;4976664;28;20196;-64
2020/12/07 01:01:29;;;;;;;49.93;26.67;;;5.70;99.90;;;;;;4976187;28;20184;-61
2020/12/07 01:03:54;;;;;;;46.90;25.23;;;5.80;99.90;;;;;;4976455;28;20228;-60
2020/12/07 01:06:20;;;;;;;53.17;26.47;;;5.80;99.90;;;;;;4976562;28;20530;-62
2020/12/07 01:08:45;;;;;;;51.37;28.90;;;5.70;99.90;;;;;;4976760;28;20199;-61
2020/12/07 01:11:11;;;;;;;44.33;27.70;;;5.60;99.90;;;;;;4976656;28;20199;-61
2020/12/07 01:13:36;;;;;;;44.23;26.20;;;5.80;99.90;;;;;;4976218;28;20211;-64
2020/12/07 01:16:02;;;;;;;47.47;26.23;;;5.90;99.90;;;;;;4976298;28;20192;-64
2020/12/07 01:18:27;;;;;;;51.57;25.80;;;5.90;99.90;;;;;;4975364;28;20495;-61
2020/12/07 01:20:53;;;;;;;47.60;26.40;;;5.80;99.90;;;;;;4976305;28;20172;-61
2020/12/07 01:23:18;;;;;;;52.13;28.80;;;5.60;99.90;;;;;;4976090;28;20195;-62
2020/12/07 01:25:44;;;;;;;59.30;29.17;;;5.60;99.90;;;;;;4976346;28;20180;-60
2020/12/07 01:28:09;;;;;;;52.07;27.33;;;5.60;99.90;;;;;;4976235;28;20195;-64
2020/12/07 01:30:35;;;;;;;51.50;27.50;;;5.40;99.90;;;;;;4976091;28;20555;-63
2020/12/07 01:33:00;;;;;;;47.17;25.53;;;5.30;99.90;;;;;;4976145;28;20234;-60
2020/12/07 01:35:26;;;;;;;41.87;24.37;;;5.30;99.90;;;;;;4976087;28;20180;-60
2020/12/07 01:37:51;;;;;;;47.60;27.10;;;5.40;99.90;;;;;;4976203;28;20287;-61
2020/12/07 01:40:17;;;;;;;45.70;26.70;;;5.40;99.90;;;;;;4975946;28;20180;-62
2020/12/07 01:42:42;;;;;;;44.97;26.40;;;5.50;99.90;;;;;;4976203;28;20197;-61
2020/12/07 01:45:07;;;;;;;44.27;24.30;;;5.60;99.90;;;;;;4975771;28;20222;-63
2020/12/07 01:47:33;;;;;;;40.77;25.00;;;5.70;99.90;;;;;;4975866;28;20187;-63
2020/12/07 01:49:59;;;;;;;38.07;23.17;;;5.70;99.90;;;;;;4975998;28;20614;-61
2020/12/07 01:52:25;;;;;;;40.23;23.23;;;5.70;99.90;;;;;;4975582;28;20208;-64
2020/12/07 01:54:51;;;;;;;38.35;25.33;;;5.70;99.90;;;;;;4974510;28;20180;-60
2020/12/07 01:57:17;;;;;;;34.47;21.60;;;5.70;99.90;;;;;;4975605;28;20274;-61
2020/12/07 01:59:42;;;;;;;33.17;22.87;;;5.80;99.90;;;;;;4975503;28;20279;-64
2020/12/07 02:02:08;;;;;;;36.63;22.80;;;5.90;99.90;;;;;;4975617;28;20184;-61
2020/12/07 02:04:33;;;;;;;34.13;21.97;;;5.90;99.90;;;;;;4975408;28;20629;-61
2020/12/07 02:07:01;;;;;;;32.77;22.47;;;6.00;99.90;;;;;;4975744;28;20189;-65
2020/12/07 02:09:28;;;;;;;33.80;22.55;;;6.00;99.90;;;;;;4975977;28;20222;-64
2020/12/07 02:11:53;;;;;;;31.02;20.02;;;5.90;99.90;;;;;;4974426;28;20191;-64
2020/12/07 02:14:19;;;;;;;32.83;21.00;;;6.00;99.90;;;;;;4973363;28;20180;-62
2020/12/07 02:16:45;;;;;;;36.40;23.10;;;6.10;99.90;;;;;;4975593;28;20188;-60
2020/12/07 02:19:10;;;;;;;32.97;21.70;;;6.10;99.90;;;;;;4975430;28;20617;-62
2020/12/07 02:21:36;;;;;;;35.70;21.33;;;6.20;99.90;;;;;;4975407;28;20207;-63
2020/12/07 02:24:01;;;;;;;34.47;22.40;;;6.30;99.90;;;;;;4975078;28;20517;-62
2020/12/07 02:26:27;;;;;;;34.37;21.50;;;6.30;99.90;;;;;;4975307;28;20203;-62
2020/12/07 02:28:52;;;;;;;34.60;21.77;;;6.20;99.90;;;;;;4974164;28;20668;-62
2020/12/07 02:31:18;;;;;;;33.37;21.90;;;6.30;99.90;;;;;;4975404;28;20184;-63
2020/12/07 02:33:43;;;;;;;33.73;20.60;;;6.40;99.90;;;;;;4974874;28;20310;-62
2020/12/07 02:36:09;;;;;;;35.27;21.53;;;6.40;99.90;;;;;;4975083;28;20239;-61
2020/12/07 02:38:35;;;;;;;29.47;20.80;;;6.40;99.90;;;;;;4974996;28;20565;-61
2020/12/07 02:41:01;;;;;;;34.17;20.47;;;6.50;99.90;;;;;;4975136;28;20419;-60
2020/12/07 02:43:26;;;;;;;33.47;22.20;;;6.60;99.90;;;;;;4974652;28;20752;-64
2020/12/07 02:45:52;;;;;;;29.33;19.70;;;6.60;99.90;;;;;;4973969;28;20180;-64
2020/12/07 02:48:17;;;;;;;28.37;20.43;;;6.70;99.90;;;;;;4974769;28;20609;-64
2020/12/07 02:50:42;;;;;;;28.03;19.30;;;6.80;99.90;;;;;;4974859;28;20319;-62
2020/12/07 02:53:08;;;;;;;29.07;19.53;;;6.90;99.90;;;;;;4974610;28;20298;-63
2020/12/07 02:55:33;;;;;;;30.73;19.47;;;7.00;95.60;;;;;;4974797;28;20191;-62
2020/12/07 02:57:59;;;;;;;28.80;18.93;;;6.90;34.80;;;;;;4974713;28;20271;-64
2020/12/07 03:00:25;;;;;;;28.53;20.50;;;6.70;1.00;;;;;;4973861;28;20184;-64
2020/12/07 03:02:50;;;;;;;27.07;19.00;;;6.60;5.60;;;;;;4974854;28;20176;-64
2020/12/07 03:05:16;;;;;;;28.40;19.17;;;6.70;23.00;;;;;;4974450;28;20194;-64
2020/12/07 03:07:41;;;;;;;28.27;19.43;;;6.80;35.80;;;;;;4974766;28;20211;-64
2020/12/07 03:10:07;;;;;;;27.07;18.73;;;6.70;21.60;;;;;;4974811;28;20268;-64
2020/12/07 03:12:32;;;;;;;26.83;19.57;;;6.90;39.50;;;;;;4973679;28;20701;-64
2020/12/07 03:14:58;;;;;;;28.10;19.13;;;6.80;15.10;;;;;;4974466;28;20184;-64
2020/12/07 03:17:23;;;;;;;28.63;19.90;;;6.70;14.00;;;;;;4974653;28;20190;-64
2020/12/07 03:19:49;;;;;;;28.67;19.33;;;6.60;27.10;;;;;;4974680;28;20180;-64
2020/12/07 03:22:14;;;;;;;26.30;18.30;;;6.70;48.20;;;;;;4974574;28;20179;-64
2020/12/07 03:24:40;;;;;;;30.47;20.43;;;6.60;44.40;;;;;;4974671;28;20224;-64
2020/12/07 03:27:05;;;;;;;28.83;19.43;;;6.50;44.90;;;;;;4978484;28;20179;-64
2020/12/07 03:29:31;;;;;;;29.73;19.57;;;6.50;56.70;;;;;;4978292;28;20568;-64
2020/12/07 03:31:56;;;;;;;26.87;19.23;;;6.50;83.50;;;;;;4978375;28;20660;-60
2020/12/07 03:34:22;;;;;;;26.40;18.50;;;6.70;99.90;;;;;;4978075;28;20180;-60
2020/12/07 03:36:48;;;;;;;24.77;17.77;;;6.80;95.50;;;;;;4978484;28;20217;-60
2020/12/07 03:39:14;;;;;;;29.60;20.40;;;6.80;83.50;;;;;;4978146;28;20524;-60
2020/12/07 03:41:39;;;;;;;32.13;20.97;;;6.90;90.40;;;;;;4978268;28;20176;-60
2020/12/07 03:44:05;;;;;;;31.47;19.80;;;6.80;75.90;;;;;;4977203;28;20180;-61
2020/12/07 03:46:30;;;;;;;26.73;19.30;;;6.80;71.70;;;;;;4978091;28;20200;-60
2020/12/07 03:48:56;;;;;;;28.10;19.13;;;6.80;74.40;;;;;;4977987;28;20183;-60
2020/12/07 03:51:22;;;;;;;26.50;18.63;;;6.90;81.20;;;;;;4978019;28;20188;-61
2020/12/07 03:53:47;;;;;;;26.80;17.57;;;7.10;91.70;;;;;;4977639;28;20215;-60
2020/12/07 03:56:13;;;;;;;25.40;18.63;;;7.00;71.60;;;;;;4978002;28;20172;-60
2020/12/07 03:58:39;;;;;;;23.33;17.50;;;7.00;72.90;;;;;;4977876;28;20200;-60
2020/12/07 04:01:05;;;;;;;26.53;17.93;;;7.00;78.70;;;;;;4978045;28;20617;-60
2020/12/07 04:03:32;;;;;;;26.48;17.90;;;7.00;82.80;;;;;;4977708;28;20259;-60
2020/12/07 04:06:14;;;;;;;27.00;18.90;;;7.00;90.80;;;;;;4978444;28;20211;-60
2020/12/07 04:08:40;;;;;;;27.45;18.67;;;7.20;95.40;;;;;;4977741;28;20188;-63
2020/12/07 04:11:05;;;;;;;25.07;17.60;;;7.20;77.10;;;;;;4977681;28;20239;-62
2020/12/07 04:13:32;;;;;;;24.53;15.90;;;7.00;52.10;;;;;;4977294;28;20211;-62
2020/12/07 04:15:57;;;;;;;23.42;17.08;;;6.90;67.50;;;;;;4977701;28;20179;-63
2020/12/07 04:18:23;;;;;;;25.20;17.50;;;7.10;88.10;;;;;;4977775;28;20672;-63
2020/12/07 04:20:48;;;;;;;26.97;18.83;;;7.20;90.60;;;;;;4977736;28;20214;-63
2020/12/07 04:23:14;;;;;;;25.60;17.83;;;7.30;90.60;;;;;;4977482;28;20172;-63
2020/12/07 04:25:39;;;;;;;24.03;17.33;;;7.30;74.30;;;;;;4977446;28;20203;-63
2020/12/07 04:28:05;;;;;;;30.63;19.23;;;7.20;56.80;;;;;;4976663;28;20242;-62
2020/12/07 04:30:31;;;;;;;24.50;17.30;;;7.20;60.90;;;;;;4977000;28;20649;-62
2020/12/07 04:32:56;;;;;;;26.67;17.47;;;7.30;67.80;;;;;;4977371;28;20211;-62
2020/12/07 04:35:22;;;;;;;25.33;17.80;;;7.30;66.60;;;;;;4977473;28;20278;-62
2020/12/07 04:37:47;;;;;;;25.40;17.03;;;7.40;67.60;;;;;;4975800;28;20180;-62
2020/12/07 04:40:13;;;;;;;22.40;16.07;;;7.40;45.30;;;;;;4977358;28;20180;-62
2020/12/07 04:42:41;;;;;;;25.77;16.37;;;7.30;44.90;;;;;;4977488;28;20184;-62
2020/12/07 04:45:08;;;;;;;26.42;16.52;;;7.30;45.60;;;;;;4977426;28;20651;-62
2020/12/07 04:47:34;;;;;;;24.52;16.48;;;7.30;48.80;;;;;;4977551;28;20184;-62
2020/12/07 04:50:06;;;;;;;30.70;19.17;;;7.40;61.00;;;;;;4977123;28;20190;-62
2020/12/07 04:52:33;;;;;;;25.40;17.38;;;7.60;70.90;;;;;;4977179;28;20927;-64
2020/12/07 04:55:01;;;;;;;23.80;16.60;;;7.60;45.10;;;;;;4975620;28;20222;-59
2020/12/07 04:57:28;;;;;;;23.02;15.98;;;7.50;18.90;;;;;;4976797;28;20199;-59
2020/12/07 04:59:55;;;;;;;24.98;17.05;;;7.30;9.80;;;;;;4976635;28;20192;-63
2020/12/07 05:02:21;;;;;;;22.00;16.10;;;7.20;27.10;;;;;;4977099;28;20192;-63
2020/12/07 05:04:47;;;;;;;23.40;16.90;;;7.20;36.00;;;;;;4976095;28;20651;-64
2020/12/07 05:07:12;;;;;;;23.65;16.15;;;7.10;45.70;;;;;;4976628;28;20199;-63
2020/12/07 05:09:39;;;;;;;23.13;17.47;;;7.10;70.20;;;;;;4976721;28;20544;-63
2020/12/07 05:12:23;;;;;;;22.65;16.13;;;7.00;89.60;;;;;;4976618;28;20204;-63
2020/12/07 05:14:49;;;;;;;29.48;17.42;;;7.00;96.20;;;;;;4976468;28;20184;-64
2020/12/07 05:17:15;;;;;;;31.17;17.37;;;7.10;99.90;;;;;;4976856;28;20197;-64
2020/12/07 05:19:43;;;;;;;25.95;17.10;;;7.30;99.90;;;;;;4976521;28;20416;-63
2020/12/07 05:22:16;;;;;;;23.55;16.95;;;7.10;99.90;;;;;;4976514;28;20221;-63
2020/12/07 05:24:42;;;;;;;21.58;15.13;;;7.10;99.90;;;;;;4976243;28;20203;-63
2020/12/07 05:27:14;;;;;;;24.73;16.67;;;7.20;99.90;;;;;;4976153;28;20184;-63
2020/12/07 05:29:50;;;;;;;24.77;16.17;;;7.30;99.90;;;;;;4976162;28;20182;-60
2020/12/07 05:32:15;;;;;;;23.92;16.52;;;7.30;99.90;;;;;;4976148;28;20251;-63
2020/12/07 05:34:41;;;;;;;26.57;15.53;;;7.30;98.70;;;;;;4975040;28;20565;-64
2020/12/07 05:37:07;;;;;;;26.43;17.63;;;7.40;93.50;;;;;;4976685;28;20681;-64
2020/12/07 05:39:32;;;;;;;20.27;15.90;;;7.20;75.70;;;;;;4975970;28;20263;-63
2020/12/07 05:41:58;;;;;;;23.63;15.77;;;7.00;67.20;;;;;;4975711;28;20180;-64
2020/12/07 05:44:24;;;;;;;23.87;17.70;;;6.90;90.60;;;;;;4975550;28;20191;-64
2020/12/07 05:46:53;;;;;;;23.63;16.50;;;6.90;99.90;;;;;;4976106;28;20176;-64
2020/12/07 05:49:22;;;;;;;25.15;16.58;;;6.90;99.90;;;;;;4975909;28;20267;-63
2020/12/07 05:52:03;;;;;;;23.00;15.82;;;6.90;99.90;;;;;;4974791;28;20184;-63
2020/12/07 05:54:30;;;;;;;23.55;15.75;;;6.90;99.90;;;;;;4975565;28;20180;-63
2020/12/07 05:57:02;;;;;;;23.83;15.35;;;7.00;99.90;;;;;;4975802;28;20182;-63
2020/12/07 05:59:30;;;;;;;21.85;16.45;;;7.10;99.90;;;;;;4975536;28;20723;-63
2020/12/07 06:01:58;;;;;;;24.35;15.98;;;7.30;99.90;;;;;;4975425;28;20222;-63
2020/12/07 06:04:27;;;;;;;21.33;14.80;;;7.40;99.90;;;;;;4975117;28;20180;-63
2020/12/07 06:06:59;;;;;;;24.27;15.20;;;7.30;99.90;;;;;;4974465;28;20184;-64
2020/12/07 06:09:26;;;;;;;24.90;15.30;;;7.20;99.90;;;;;;4975681;28;20227;-64
2020/12/07 06:11:57;;;;;;;25.73;16.77;;;7.20;99.90;;;;;;4975471;28;20184;-64
2020/12/07 06:14:24;;;;;;;26.92;15.15;;;7.30;99.90;;;;;;4975444;28;20514;-63
2020/12/07 06:16:51;;;;;;;22.85;15.20;;;7.30;99.90;;;;;;4975345;28;20190;-63
2020/12/07 06:19:17;;;;;;;22.85;15.25;;;7.40;92.10;;;;;;4975569;28;20519;-63
2020/12/07 06:22:01;;;;;;;23.20;15.88;;;7.30;63.50;;;;;;4975467;28;20180;-63
2020/12/07 06:24:42;;;;;;;22.30;15.60;;;7.20;45.40;;;;;;4975046;28;20184;-63
2020/12/07 06:27:10;;;;;;;20.63;15.23;;;7.10;52.40;;;;;;4975245;28;20187;-63
2020/12/07 06:29:36;;;;;;;22.02;15.48;;;7.10;81.50;;;;;;4974972;28;20267;-63
2020/12/07 06:32:02;;;;;;;21.67;15.70;;;7.20;98.10;;;;;;4975264;28;20267;-63
2020/12/07 06:34:40;;;;;;;25.33;15.73;;;7.30;95.50;;;;;;4974933;28;20675;-63
2020/12/07 06:37:07;;;;;;;19.83;14.70;;;7.30;99.80;;;;;;4975157;28;20506;-63
2020/12/07 06:39:44;;;;;;;26.27;15.88;;;7.30;96.00;;;;;;4974199;28;20188;-63
2020/12/07 06:42:11;;;;;;;20.77;13.98;;;7.20;91.20;;;;;;4974251;28;20187;-60
2020/12/07 06:44:46;;;;;;;20.70;14.93;;;7.10;91.40;;;;;;4974586;28;20190;-60
2020/12/07 06:47:23;;;;;;;20.20;15.27;;;7.20;97.00;;;;;;4975087;28;20573;-61
2020/12/07 06:49:58;;;;;;;21.25;16.17;;;7.20;94.20;;;;;;4974023;28;20274;-60
2020/12/07 06:52:25;;;;;;;18.65;14.13;;;7.20;91.80;;;;;;4975139;28;20270;-60
2020/12/07 06:55:12;;;;;;;20.20;14.82;;;7.10;85.70;;;;;;4974806;28;20244;-60
2020/12/07 06:57:53;;;;;;;23.58;15.48;;;7.10;95.00;;;;;;4974840;28;20202;-60
2020/12/07 07:00:23;;;;;;;21.83;15.48;;;7.10;95.90;;;;;;4974494;28;20188;-60
2020/12/07 07:02:51;;;;;;;21.67;14.02;;;7.00;96.80;;;;;;4975059;28;20234;-60
2020/12/07 07:05:19;;;;;;;19.63;14.00;;;7.10;99.90;;;;;;4974167;28;20180;-59
2020/12/07 07:07:45;;;;;;;24.45;15.35;;;7.20;99.90;;;;;;4974397;28;20659;-59
2020/12/07 07:10:12;;;;;;;19.80;14.43;;;7.30;99.90;;;;;;4974599;28;20188;-61
2020/12/07 07:12:39;;;;;;;26.35;16.02;;;7.20;93.90;;;;;;4974414;28;20558;-61
2020/12/07 07:15:06;;;;;;;21.05;14.55;;;7.20;82.30;;;;;;4973458;28;20186;-61
2020/12/07 07:17:34;;;;;;;21.38;14.45;;;7.20;89.20;;;;;;4974701;28;20206;-61
2020/12/07 07:20:02;;;;;;;21.33;15.38;;;7.20;78.50;;;;;;4974562;28;20188;-61
2020/12/07 07:22:28;;;;;;;23.17;15.25;;;7.20;77.20;;;;;;4974866;28;20176;-63
2020/12/07 07:30:09;;;;;;;23.08;14.77;;;7.20;81.30;;;;;;4974866;28;20223;-59
2020/12/07 07:32:38;;;;;;;19.17;13.87;;;7.20;62.60;;;;;;4974531;28;20225;-59
2020/12/07 07:35:03;;;;;;;21.15;14.18;;;7.20;63.80;;;;;;4974249;28;20606;-59
2020/12/07 07:37:29;;;;;;;22.47;14.70;;;7.20;62.90;;;;;;4974677;28;20211;-59
2020/12/07 07:40:06;;;;;;;21.93;14.70;;;7.10;57.90;;;;;;4974464;28;20267;-59
2020/12/07 07:42:38;;;;;;;22.80;16.13;;;7.30;68.20;;;;;;4974470;28;20476;-60
2020/12/07 07:45:04;;;;;;;20.75;14.30;;;7.40;55.70;;;;;;4974994;28;20180;-62
2020/12/07 07:47:38;;;;;;;24.05;15.25;;;7.40;36.30;;;;;;4974593;28;20203;-62
2020/12/07 08:18:00;;;;;;;22.10;14.90;;;7.30;33.00;;;;;;4975885;28;20180;-60
2020/12/07 08:20:29;;;;;;;19.63;13.30;;;7.40;45.20;;;;;;4977346;28;20242;-60
2020/12/07 08:23:00;;;;;;;19.35;14.30;;;7.50;47.70;;;;;;4977108;28;20192;-63
2020/12/07 08:25:51;;;;;;;20.58;15.30;;;7.50;43.10;;;;;;4976756;28;20257;-63
2020/12/07 08:28:21;;;;;;;22.63;15.23;;;7.60;41.10;;;;;;4976345;28;20183;-63
2020/12/07 08:31:09;;;;;;;19.73;14.57;;;7.70;14.00;;;;;;4977185;28;20262;-63
2020/12/07 08:33:38;;;;;;;21.80;14.82;;;7.60;1.00;;;;;;4976652;28;20712;-62
2020/12/07 08:36:05;;;;;;;25.77;14.70;;;7.50;1.00;;;;;;4977321;28;20190;-62
2020/12/07 08:38:33;;;;;;;21.13;15.40;;;7.50;1.00;;;;;;4977245;28;20180;-63
2020/12/07 08:41:16;;;;;;;18.95;13.82;;;7.50;1.00;;;;;;4976956;28;20187;-62
2020/12/07 08:43:44;;;;;;;22.75;15.75;;;7.40;16.30;;;;;;4976874;28;20528;-62
2020/12/07 08:46:12;;;;;;;24.13;17.20;;;7.50;31.90;;;;;;4976981;28;20621;-62
2020/12/07 08:48:39;;;;;;;22.42;15.90;;;7.50;31.90;;;;;;4976078;28;20185;-62
2020/12/07 08:51:04;;;;;;;26.67;19.58;;;7.70;38.20;;;;;;4977146;28;20687;-62
2020/12/07 08:53:30;;;;;;;27.37;17.10;;;7.80;26.80;;;;;;4976509;28;20216;-63
2020/12/07 08:55:56;;;;;;;22.90;17.80;;;7.90;10.90;;;;;;4976804;28;20449;-63
2020/12/07 08:58:22;;;;;;;25.57;15.80;;;7.90;1.00;;;;;;4980028;28;20287;-64
2020/12/07 09:00:48;;;;;;;21.77;15.65;;;7.80;1.00;;;;;;4978576;28;20184;-62
2020/12/07 09:03:14;;;;;;;20.60;15.43;;;7.80;1.00;;;;;;4976607;28;20188;-62
2020/12/07 09:05:39;;;;;;;22.57;15.13;;;7.70;1.00;;;;;;4976697;28;20183;-62
2020/12/07 09:08:06;;;;;;;18.30;14.30;;;7.80;1.00;;;;;;4976737;28;20529;-62
2020/12/07 09:10:33;;;;;;;20.52;15.00;;;7.80;1.00;;;;;;4976926;28;20443;-62
2020/12/07 09:12:59;;;;;;;30.95;17.83;;;7.70;1.00;;;;;;4976722;28;20596;-62
2020/12/07 09:15:25;;;;;;;23.42;15.73;;;7.70;1.00;;;;;;4976575;28;20214;-62
2020/12/07 09:17:51;;;;;;;19.95;14.88;;;7.70;1.00;;;;;;4976484;28;20215;-63
2020/12/07 09:20:16;;;;;;;23.43;15.17;;;7.70;1.00;;;;;;4976608;28;20180;-61
2020/12/07 09:22:42;;;;;;;19.43;15.03;;;7.80;11.80;;;;;;4975868;28;20194;-65
2020/12/07 09:25:07;;;;;;;22.57;16.33;;;7.90;13.20;;;;;;4958338;28;20231;-62
2020/12/07 09:27:33;;;;;;;25.30;16.67;;;7.90;1.00;;;;;;4957443;29;20185;-64
2020/12/07 09:29:59;;;;;;;21.43;15.60;;;7.80;1.00;;;;;;4963546;28;20534;-64
2020/12/07 09:32:24;;;;;;;27.23;16.97;;;7.80;1.00;;;;;;4976300;28;20203;-65
2020/12/07 09:34:50;;;;;;;24.37;16.93;;;7.80;1.00;;;;;;4976008;28;20392;-63
2020/12/07 09:37:15;;;;;;;27.30;19.47;;;7.80;1.00;;;;;;4975994;28;20183;-63
2020/12/07 09:39:42;;;;;;;25.20;16.43;;;7.80;1.00;;;;;;4976285;28;20180;-61
2020/12/07 09:42:07;;;;;;;25.98;17.67;;;7.70;1.00;;;;;;4975375;28;20263;-62
2020/12/07 09:44:33;;;;;;;26.40;16.83;;;7.80;2.70;;;;;;4975749;28;20323;-63
2020/12/07 09:46:58;;;;;;;24.27;17.40;;;7.80;1.00;;;;;;4976984;28;20176;-65
2020/12/07 09:49:24;;;;;;;24.03;17.80;;;7.80;1.00;;;;;;4982081;28;20179;-68
2020/12/07 09:51:49;;;;;;;24.23;18.60;;;7.80;1.00;;;;;;4984497;28;20671;-67
2020/12/07 09:54:15;;;;;;;28.40;19.67;;;7.70;1.00;;;;;;4975398;28;20276;-67
2020/12/07 09:56:41;;;;;;;26.07;18.50;;;7.60;1.00;;;;;;4982758;28;20266;-66
2020/12/07 09:59:06;;;;;;;26.03;18.20;;;7.60;1.00;;;;;;4975580;28;20289;-68
2020/12/07 10:01:32;;;;;;;24.90;18.77;;;7.50;1.00;;;;;;4975796;28;20188;-69
2020/12/07 10:03:57;;;;;;;31.07;20.47;;;7.60;10.60;;;;;;4977312;28;20192;-69
2020/12/07 10:06:23;;;;;;;25.97;18.23;;;7.60;15.60;;;;;;4979787;28;20191;-70
2020/12/07 10:08:48;;;;;;;27.00;19.33;;;7.70;16.30;;;;;;4975272;28;20191;-65
2020/12/07 10:11:14;;;;;;;30.00;19.80;;;7.80;3.80;;;;;;4975361;28;20223;-67
2020/12/07 10:13:40;;;;;;;25.50;18.57;;;7.60;1.00;;;;;;4975004;28;20314;-66
2020/12/07 10:16:06;;;;;;;26.33;18.42;;;7.60;1.00;;;;;;4975033;28;20184;-64
2020/12/07 10:18:31;;;;;;;29.07;19.90;;;7.60;1.00;;;;;;4975420;28;20489;-65
2020/12/07 10:20:57;;;;;;;24.63;18.00;;;7.50;1.00;;;;;;4976489;28;20177;-60
2020/12/07 10:23:22;;;;;;;25.97;18.27;;;7.50;1.00;;;;;;4980121;28;20210;-61
2020/12/07 10:25:51;;;;;;;24.60;17.70;;;7.60;1.00;;;;;;4975093;28;20191;-65
2020/12/07 10:28:17;;;;;;;27.92;19.35;;;7.60;1.00;;;;;;4975440;28;20230;-63
2020/12/07 10:30:43;;;;;;;27.70;18.43;;;7.70;1.00;;;;;;4973946;28;20223;-62
2020/12/07 10:33:08;;;;;;;25.73;18.80;;;7.60;1.00;;;;;;4975483;28;20222;-64
2020/12/07 10:35:34;;;;;;;27.60;19.73;;;7.50;1.00;;;;;;4974436;28;20816;-65
2020/12/07 10:38:00;;;;;;;31.13;19.67;;;7.50;1.00;;;;;;4975017;28;20246;-64
2020/12/07 10:40:25;;;;;;;29.93;18.23;;;7.40;1.00;;;;;;4970256;28;20189;-68
2020/12/07 10:42:51;;;;;;;31.60;20.47;;;7.30;1.00;;;;;;4973764;28;20202;-68
2020/12/07 10:45:16;;;;;;;30.70;19.80;;;7.40;1.00;;;;;;4973785;28;20530;-65
2020/12/07 10:47:42;;;;;;;30.90;21.37;;;7.40;1.00;;;;;;4967191;28;20200;-65
2020/12/07 10:50:07;;;;;;;25.67;17.40;;;7.50;1.00;;;;;;4970837;28;20270;-64
2020/12/07 10:52:33;;;;;;;31.40;20.20;;;7.60;1.00;;;;;;4971842;28;20260;-70
2020/12/07 10:54:58;;;;;;;27.73;19.50;;;7.50;1.00;;;;;;4972967;28;20192;-63
2020/12/07 10:57:24;;;;;;;30.17;20.47;;;7.20;1.00;;;;;;4975896;28;20192;-69
2020/12/07 10:59:49;;;;;;;31.53;22.10;;;7.20;1.00;;;;;;4974412;28;20194;-70
2020/12/07 11:02:15;;;;;;;32.17;21.10;;;7.10;1.00;;;;;;4968726;28;20189;-71
2020/12/07 11:04:41;;;;;;;31.30;19.00;;;7.20;1.00;;;;;;4967342;28;20210;-71
2020/12/07 11:07:13;;;;;;;26.93;18.03;;;7.10;1.00;;;;;;4960780;28;20185;-66
2020/12/07 11:09:38;;;;;;;32.10;18.15;;;7.00;1.00;;;;;;4974169;28;20194;-68
2020/12/07 11:12:10;;;;;;;38.80;23.60;;;6.90;99.90;;;;;;4975063;28;20266;-68
2020/12/07 11:14:35;;;;;;;26.13;16.83;;;6.80;99.90;;;;;;4973641;28;20261;-68
2020/12/07 11:17:01;;;;;;;27.60;17.27;;;6.80;99.90;;;;;;4972760;28;20263;-69
2020/12/07 11:19:26;;;;;;;28.47;17.53;;;6.80;99.90;;;;;;4963713;28;20554;-64
2020/12/07 11:21:52;;;;;;;23.00;15.67;;;6.80;1.00;;;;;;4975154;28;20196;-66
2020/12/07 11:24:17;;;;;;;26.03;16.70;;;7.00;1.00;;;;;;4974851;28;20212;-66
2020/12/07 11:26:43;;;;;;;28.37;16.10;;;7.00;1.00;;;;;;4974796;28;20210;-70
2020/12/07 11:29:08;;;;;;;26.00;15.17;;;7.00;99.90;;;;;;4974576;28;20518;-67
2020/12/07 11:31:34;;;;;;;23.23;14.87;;;7.20;99.90;;;;;;4973311;28;20254;-66
2020/12/07 11:34:00;;;;;;;23.30;14.07;;;7.20;99.90;;;;;;4986286;28;20647;-64
2020/12/07 11:36:25;;;;;;;21.47;13.20;;;7.10;99.90;;;;;;4993838;28;20183;-65
2020/12/07 11:49:16;;;;;;;21.63;15.07;;;7.30;1.00;;;;;;4987234;28;20280;-71
2020/12/07 11:51:41;;;;;;;38.03;22.53;;;7.50;1.00;;;;;;4979439;28;20643;-71
2020/12/07 11:54:07;;;;;;;20.60;14.37;;;7.50;1.00;;;;;;4978681;28;20219;-73
2020/12/07 11:56:35;;;;;;;24.93;16.37;;;7.60;99.90;;;;;;4985123;28;20520;-62
2020/12/07 11:59:02;;;;;;;18.85;12.32;;;7.30;99.90;;;;;;4977636;28;20283;-63
2020/12/07 12:01:32;;;;;;;27.25;15.82;;;7.00;1.00;;;;;;4976860;28;20275;-64
2020/12/07 12:03:58;;;;;;;22.60;14.35;;;7.00;1.00;;;;;;4977702;28;20371;-64
2020/12/07 12:06:25;;;;;;;21.73;13.60;;;6.90;1.00;;;;;;4977589;28;20181;-63
2020/12/07 12:08:52;;;;;;;22.23;14.15;;;6.90;1.00;;;;;;4964878;28;20500;-63
2020/12/07 12:11:18;;;;;;;17.73;13.40;;;6.80;1.00;;;;;;4958480;28;20188;-64
2020/12/07 12:13:44;;;;;;;17.80;13.65;;;6.90;1.00;;;;;;4958081;28;20674;-65
2020/12/07 12:16:12;;;;;;;21.27;14.40;;;6.90;1.00;;;;;;4958480;28;20185;-64
2020/12/07 12:18:38;;;;;;;17.90;12.88;;;7.00;1.00;;;;;;4958275;29;20439;-67
2020/12/07 12:21:04;;;;;;;21.03;14.00;;;7.10;1.00;;;;;;4961116;28;20267;-65
2020/12/07 12:23:29;;;;;;;19.80;14.07;;;6.90;1.00;;;;;;4977047;28;20270;-68
2020/12/07 12:25:55;;;;;;;18.70;12.70;;;7.00;1.00;;;;;;4977417;28;20458;-71
2020/12/07 12:28:20;;;;;;;16.17;11.73;;;7.10;1.00;;;;;;4977491;28;20584;-70
2020/12/07 12:30:46;;;;;;;17.40;12.27;;;6.90;1.00;;;;;;4983457;28;20183;-69
2020/12/07 12:33:11;;;;;;;15.30;12.40;;;6.90;1.00;;;;;;4997990;28;20202;-65
2020/12/07 12:35:37;;;;;;;18.23;12.17;;;6.90;1.00;;;;;;4996518;28;20191;-63
2020/12/07 12:38:02;;;;;;;19.47;12.33;;;7.20;1.00;;;;;;4997070;28;20179;-67
2020/12/07 12:40:28;;;;;;;15.70;10.90;;;7.50;99.90;;;;;;4997406;28;20179;-63
2020/12/07 12:42:53;;;;;;;12.67;9.30;;;7.50;1.00;;;;;;4997030;28;20243;-65
2020/12/07 12:45:19;;;;;;;12.50;9.57;;;7.50;99.90;;;;;;4996809;28;20210;-66
2020/12/07 12:47:45;;;;;;;9.83;8.27;;;7.40;99.90;;;;;;4996098;28;20274;-64
2020/12/07 12:50:10;;;;;;;11.53;8.70;;;7.30;99.90;;;;;;4996964;28;20517;-65
2020/12/07 12:52:38;;;;;;;9.03;7.87;;;7.20;1.00;;;;;;4996947;28;20666;-67
2020/12/07 12:55:03;;;;;;;10.32;8.27;;;7.00;1.00;;;;;;4996410;28;20238;-66
2020/12/07 12:57:29;;;;;;;10.10;7.93;;;6.90;94.90;;;;;;4982637;28;20559;-67
2020/12/07 12:59:55;;;;;;;7.83;6.23;;;6.90;99.90;;;;;;4977634;28;20231;-66
2020/12/07 13:02:20;;;;;;;8.50;6.90;;;6.70;99.90;;;;;;4976697;28;20180;-67
2020/12/07 13:04:46;;;;;;;16.00;10.73;;;6.60;1.00;;;;;;4977209;28;20570;-66
2020/12/07 13:07:11;;;;;;;13.23;8.83;;;6.70;1.00;;;;;;4977524;28;20234;-63
2020/12/07 13:09:37;;;;;;;8.17;6.43;;;6.60;1.00;;;;;;4977016;28;20655;-62
2020/12/07 13:12:03;;;;;;;10.33;7.53;;;6.50;1.00;;;;;;4976782;28;20219;-62
2020/12/07 13:14:28;;;;;;;9.43;7.13;;;6.60;15.50;;;;;;4976771;28;20176;-62
2020/12/07 13:17:03;;;;;;;16.90;10.93;;;6.70;1.00;;;;;;4976817;28;20516;-62
2020/12/07 13:19:29;;;;;;;20.63;12.82;;;6.70;1.00;;;;;;4976497;28;20263;-65
2020/12/07 13:22:09;;;;;;;8.90;7.28;;;6.70;1.00;;;;;;4976712;28;20187;-64